Terminal Aerodrome Forecast
Issued by NWS

Current Version | Previous Version | Text Only | Print | Product List | Glossary On
Versions: 1 2 3 4 5 6 7 8 9 10 11 12 13 14 15
000
FTUS41 KBTV 191740
TAFMSS
TAF
KMSS 191740Z 1918/2018 27014G22KT P6SM SCT200
     FM192300 28009KT P6SM BKN040
     FM200000 28009KT P6SM BKN025
     FM200300 30009KT P6SM SCT070
     FM201400 34007KT P6SM FEW250=

USA.gov is the U.S. government's official web portal to all federal, state and local government web resources and services.